createdAt,value
2018-11-14T05:05:38.184Z,0.00
2018-11-14T05:06:38.122Z,0.00
2018-11-14T05:08:31.493Z,0.00
2018-11-14T05:09:31.474Z,0.00
2018-11-14T05:11:24.325Z,0.00
2018-11-14T05:12:24.304Z,0.00
2018-11-14T05:14:17.193Z,0.00
2018-11-14T05:15:17.158Z,0.00
2018-11-14T05:16:17.173Z,0.00
2018-11-14T05:34:23.900Z,0.00
2018-11-14T05:35:23.847Z,0.00
2018-11-14T05:37:16.758Z,0.00
2018-11-14T05:38:16.682Z,0.00
2018-11-14T05:40:09.635Z,0.00
2018-11-14T05:41:09.515Z,0.00
2018-11-14T05:43:02.396Z,0.00
2018-11-14T05:44:02.360Z,0.00
2018-11-14T05:45:55.211Z,0.00
2018-11-14T05:46:55.218Z,0.00
2018-11-14T05:48:48.602Z,0.00
2018-11-14T05:49:48.570Z,0.00
2018-11-14T05:51:41.419Z,0.00
2018-11-14T05:52:41.413Z,0.00
2018-11-14T05:54:34.820Z,0.00
2018-11-14T05:55:34.799Z,4.00
2018-11-14T05:57:27.651Z,0.00
2018-11-14T05:58:27.644Z,4.00
2018-11-14T06:00:21.008Z,4.00
2018-11-14T06:01:20.986Z,0.00
2018-11-14T06:03:13.866Z,4.00
2018-11-14T06:04:13.843Z,4.00
2018-11-14T06:06:06.709Z,8.00
2018-11-14T06:07:06.747Z,8.00
2018-11-14T06:08:59.581Z,8.00
2018-11-14T06:09:59.545Z,12.00
2018-11-14T06:11:52.941Z,16.00
2018-11-14T06:12:52.904Z,20.00
2018-11-14T06:14:46.345Z,28.00
2018-11-14T06:15:46.243Z,28.00
2018-11-14T06:17:39.095Z,36.00
2018-11-14T06:18:39.080Z,44.00
2018-11-14T06:20:31.999Z,56.00
2018-11-14T06:21:31.955Z,60.00
2018-11-14T06:22:32.008Z,72.00
2018-11-14T06:23:31.967Z,80.00
2018-11-14T06:24:31.929Z,88.00
2018-11-14T06:25:31.924Z,96.00
2018-11-14T06:26:31.920Z,104.00
2018-11-14T06:27:31.912Z,112.00
2018-11-14T06:28:31.903Z,120.00
2018-11-14T06:29:31.896Z,132.00
2018-11-14T06:30:31.890Z,140.00
2018-11-14T06:31:31.883Z,156.00
2018-11-14T06:32:31.878Z,168.00
2018-11-14T06:33:31.871Z,184.00
2018-11-14T06:34:31.866Z,196.00
2018-11-14T06:35:31.859Z,212.00
2018-11-14T06:36:31.853Z,228.00
2018-11-14T06:37:31.849Z,248.00
2018-11-14T06:38:31.845Z,264.00
2018-11-14T06:39:31.837Z,288.00
2018-11-14T06:40:31.850Z,312.00
2018-11-14T06:41:31.872Z,332.00
2018-11-14T06:42:31.852Z,356.00
2018-11-14T06:43:31.806Z,384.00
2018-11-14T06:44:31.804Z,404.00
2018-11-14T06:45:31.817Z,424.00
2018-11-14T06:46:31.794Z,440.00
2018-11-14T06:47:31.790Z,460.00
2018-11-14T06:48:31.780Z,476.00
2018-11-14T06:49:31.775Z,488.00
2018-11-14T06:50:31.767Z,504.00
2018-11-14T06:51:31.762Z,524.00
2018-11-14T06:52:31.769Z,548.00
2018-11-14T06:53:31.745Z,568.00
2018-11-14T06:54:31.742Z,588.00
2018-11-14T06:55:31.737Z,616.00
2018-11-14T06:56:31.731Z,632.00
2018-11-14T06:57:31.728Z,656.00
2018-11-14T06:58:31.741Z,676.00
2018-11-14T06:59:31.756Z,692.00
2018-11-14T07:00:31.707Z,712.00
2018-11-14T07:01:31.717Z,732.00
2018-11-14T07:02:38.333Z,748.00
2018-11-14T07:03:31.811Z,760.00
2018-11-14T07:04:31.684Z,776.00
2018-11-14T07:05:31.778Z,788.00
2018-11-14T07:06:31.666Z,796.00
2018-11-14T07:07:31.664Z,800.00
2018-11-14T07:08:31.661Z,812.00
2018-11-14T07:09:31.654Z,840.00
2018-11-14T07:10:31.644Z,856.00
2018-11-14T07:11:31.637Z,872.00
2018-11-14T07:12:31.632Z,892.00
2018-11-14T07:13:31.629Z,912.00
2018-11-14T07:14:31.619Z,924.00
2018-11-14T07:15:31.614Z,936.00
2018-11-14T07:16:31.606Z,944.00
2018-11-14T07:17:31.606Z,948.00
2018-11-14T07:18:31.595Z,956.00
2018-11-14T07:19:31.582Z,972.00
2018-11-14T07:20:31.587Z,984.00
2018-11-14T07:21:31.576Z,984.00
2018-11-14T07:22:31.571Z,976.00
2018-11-14T07:23:31.570Z,984.00
2018-11-14T07:24:31.600Z,1008.00
2018-11-14T07:25:31.560Z,996.00
2018-11-14T16:02:45.644Z,0.00
2018-11-14T16:03:45.581Z,4.00
2018-11-14T16:04:45.565Z,0.00
2018-11-14T16:05:45.644Z,0.00
2018-11-14T16:06:47.050Z,0.00
2018-11-14T16:07:45.558Z,0.00
2018-11-14T16:08:45.531Z,0.00
2018-11-14T16:09:45.517Z,0.00
2018-11-14T16:10:45.514Z,0.00
2018-11-14T16:11:45.502Z,0.00
2018-11-14T16:12:45.504Z,0.00
2018-11-14T16:13:45.490Z,0.00
2018-11-14T16:14:45.493Z,0.00
2018-11-14T16:15:45.482Z,0.00
2018-11-14T16:16:45.480Z,0.00
2018-11-14T16:17:45.461Z,0.00
2018-11-14T16:18:45.463Z,0.00
2018-11-14T16:19:45.457Z,0.00
2018-11-14T16:20:45.450Z,0.00
2018-11-14T16:21:45.443Z,0.00
2018-11-14T16:22:45.437Z,0.00
2018-11-14T16:23:45.809Z,0.00
2018-11-14T16:24:45.474Z,0.00
2018-11-14T16:25:45.439Z,0.00
2018-11-14T16:26:45.416Z,0.00
2018-11-14T16:27:45.432Z,0.00
2018-11-14T16:30:19.300Z,0.00
2018-11-14T16:31:19.278Z,0.00
2018-11-14T16:33:12.154Z,0.00
2018-11-14T16:34:12.132Z,0.00
2018-11-14T16:35:12.150Z,0.00
2018-11-14T16:36:12.125Z,0.00
2018-11-14T16:37:12.116Z,0.00
2018-11-14T16:38:12.154Z,0.00
2018-11-14T16:39:12.109Z,0.00
2018-11-14T16:40:12.102Z,0.00
2018-11-14T16:41:12.096Z,0.00
2018-11-14T16:42:12.090Z,0.00
2018-11-14T16:43:12.083Z,0.00
2018-11-14T16:44:12.090Z,0.00
2018-11-14T16:45:12.081Z,0.00
2018-11-14T16:46:12.101Z,0.00
2018-11-14T16:47:12.064Z,0.00
2018-11-14T16:48:12.054Z,0.00
2018-11-14T16:49:12.048Z,0.00
2018-11-14T16:50:12.048Z,0.00
2018-11-14T16:51:12.056Z,0.00
2018-11-14T16:52:12.043Z,0.00
2018-11-14T16:53:12.036Z,0.00
2018-11-14T16:54:12.025Z,0.00
2018-11-14T16:55:19.222Z,0.00
2018-11-14T16:57:05.491Z,0.00
2018-11-14T16:58:05.484Z,0.00
2018-11-14T16:59:58.648Z,0.00
2018-11-14T17:00:58.378Z,0.00
2018-11-14T17:02:51.256Z,0.00
2018-11-14T17:03:51.300Z,0.00
2018-11-14T17:04:51.240Z,0.00
2018-11-14T17:05:51.298Z,0.00
2018-11-14T17:06:51.221Z,0.00
2018-11-14T17:07:51.212Z,0.00
2018-11-14T17:08:58.411Z,0.00
2018-11-14T17:10:44.622Z,0.00
2018-11-14T17:11:44.672Z,0.00
2018-11-14T17:13:37.484Z,0.00
2018-11-14T17:15:10.237Z,0.00
2018-11-14T17:16:10.210Z,0.00
2018-11-14T17:17:10.188Z,0.00
2018-11-14T17:18:10.172Z,0.00
2018-11-14T17:19:17.370Z,0.00
2018-11-14T17:21:03.613Z,0.00
2018-11-14T17:22:03.623Z,0.00
2018-11-14T17:23:57.147Z,0.00
2018-11-14T17:24:56.967Z,0.00
2018-11-14T17:26:49.839Z,0.00
2018-11-14T17:27:49.827Z,0.00
2018-11-14T17:29:42.749Z,0.00
2018-11-14T17:30:42.813Z,0.00
2018-11-14T17:32:35.845Z,0.00
2018-11-14T17:33:35.823Z,0.00
2018-11-14T17:35:28.868Z,0.00
2018-11-14T17:36:28.684Z,0.00
2018-11-14T17:38:21.581Z,0.00
2018-11-14T17:39:28.758Z,0.00
2018-11-14T17:41:14.604Z,0.00
2018-11-14T17:42:14.495Z,0.00
2018-11-14T17:44:07.303Z,0.00
2018-11-14T17:45:07.269Z,0.00
2018-11-14T17:47:00.128Z,0.00
2018-11-14T17:48:00.155Z,0.00
2018-11-14T17:49:53.035Z,0.00
2018-11-14T17:50:52.999Z,0.00
2018-11-14T17:52:45.867Z,0.00
2018-11-14T17:53:53.009Z,0.00
2018-11-14T17:55:38.757Z,0.00
2018-11-14T17:56:38.718Z,0.00
2018-11-14T17:58:31.721Z,0.00
2018-11-14T17:59:31.664Z,0.00
2018-11-14T18:01:24.549Z,0.00
2018-11-14T18:02:24.549Z,0.00
2018-11-14T18:04:17.400Z,0.00
2018-11-14T18:05:17.383Z,0.00
2018-11-14T18:07:10.843Z,0.00
2018-11-14T18:08:12.309Z,0.00
2018-11-14T18:10:03.715Z,0.00
2018-11-14T18:11:03.624Z,0.00
2018-11-14T18:12:57.112Z,0.00
2018-11-14T18:13:57.089Z,0.00
2018-11-14T18:14:57.094Z,0.00
2018-11-14T18:15:57.084Z,0.00
2018-11-14T18:16:57.067Z,0.00
2018-11-14T18:17:57.063Z,0.00
2018-11-14T18:18:57.068Z,0.00
2018-11-14T18:20:04.199Z,0.00
2018-11-14T18:21:49.983Z,0.00
2018-11-14T18:22:49.941Z,0.00
2018-11-14T18:24:42.791Z,0.00
2018-11-14T18:25:42.771Z,0.00
2018-11-14T18:27:35.643Z,0.00
2018-11-14T18:28:35.619Z,0.00
2018-11-14T18:30:28.561Z,0.00
2018-11-14T18:31:28.492Z,0.00
2018-11-14T18:33:21.925Z,0.00
2018-11-14T18:34:21.893Z,0.00
2018-11-14T18:36:14.989Z,0.00
2018-11-14T18:37:14.953Z,0.00
2018-11-14T18:39:08.416Z,0.00
2018-11-14T18:40:08.369Z,0.00
2018-11-14T18:42:01.785Z,0.00
2018-11-14T18:43:19.731Z,0.00
2018-11-14T18:44:19.654Z,0.00
2018-11-14T18:46:12.549Z,0.00
2018-11-14T18:47:12.504Z,0.00
2018-11-14T18:49:13.405Z,0.00
2018-11-14T18:50:06.051Z,0.00
2018-11-14T18:52:07.789Z,0.00
2018-11-14T18:52:59.494Z,0.00
2018-11-14T18:54:52.945Z,0.00
2018-11-14T18:55:52.921Z,0.00
2018-11-14T18:57:46.389Z,0.00
2018-11-14T18:58:46.364Z,0.00
2018-11-14T19:00:39.884Z,0.00
2018-11-14T19:01:39.797Z,0.00
2018-11-14T19:03:33.226Z,0.00
2018-11-14T19:04:33.188Z,0.00
2018-11-14T19:05:33.177Z,0.00
2018-11-14T19:06:33.179Z,0.00
2018-11-14T19:07:33.165Z,0.00
2018-11-14T19:08:33.182Z,0.00
2018-11-14T19:09:33.149Z,0.00
2018-11-14T19:10:33.144Z,0.00
2018-11-14T19:11:40.304Z,0.00
2018-11-14T19:13:26.644Z,0.00
2018-11-14T19:14:26.597Z,0.00
2018-11-14T19:16:19.464Z,0.00
2018-11-14T19:17:26.635Z,0.00
2018-11-14T19:19:13.089Z,0.00
2018-11-14T19:20:12.877Z,0.00
2018-11-14T19:22:05.737Z,0.00
2018-11-14T19:23:05.726Z,0.00
2018-11-14T19:24:59.160Z,0.00
2018-11-14T19:25:59.135Z,0.00
2018-11-14T19:27:52.637Z,0.00
2018-11-14T19:28:52.547Z,0.00
2018-11-14T19:30:45.513Z,0.00
2018-11-14T19:31:45.422Z,0.00
2018-11-14T19:33:38.278Z,0.00
2018-11-14T19:34:38.268Z,0.00
2018-11-14T19:36:31.156Z,0.00
2018-11-14T19:37:31.115Z,0.00
2018-11-14T19:38:31.120Z,0.00
2018-11-14T19:39:31.106Z,0.00
2018-11-14T19:40:31.102Z,0.00
2018-11-14T19:41:31.097Z,0.00
2018-11-14T19:42:31.124Z,0.00
2018-11-14T19:43:31.095Z,0.00
2018-11-14T19:44:31.111Z,0.00
2018-11-14T19:45:31.067Z,0.00
2018-11-14T19:46:31.061Z,0.00
2018-11-14T19:47:31.054Z,0.00
2018-11-14T19:48:31.046Z,0.00
2018-11-14T19:49:31.039Z,0.00
2018-11-14T19:50:31.093Z,0.00
2018-11-14T19:51:31.036Z,0.00
2018-11-14T19:52:31.021Z,0.00
2018-11-14T19:53:31.012Z,0.00
2018-11-14T19:54:31.042Z,0.00
2018-11-14T19:55:31.064Z,0.00
2018-11-14T19:56:30.992Z,0.00
2018-11-14T19:57:30.982Z,0.00
2018-11-14T19:58:31.013Z,0.00
2018-11-14T19:59:30.968Z,0.00
2018-11-14T20:00:30.968Z,0.00
2018-11-14T20:01:30.954Z,0.00
2018-11-14T20:02:30.955Z,0.00
2018-11-14T20:03:30.941Z,0.00
2018-11-14T20:04:30.949Z,0.00
2018-11-14T20:05:30.925Z,0.00
2018-11-14T20:06:30.932Z,0.00
2018-11-14T20:07:30.915Z,0.00
2018-11-14T20:08:30.907Z,0.00
2018-11-14T20:09:30.899Z,0.00
2018-11-14T20:10:31.045Z,0.00
2018-11-14T20:11:30.885Z,0.00
2018-11-14T20:12:30.875Z,0.00
2018-11-14T20:13:30.869Z,0.00
2018-11-14T20:14:30.862Z,0.00
2018-11-14T20:15:30.854Z,0.00
2018-11-14T20:16:30.848Z,0.00
2018-11-14T20:17:30.840Z,0.00
2018-11-14T20:18:30.835Z,0.00
2018-11-14T20:19:30.829Z,0.00
2018-11-14T20:20:30.820Z,0.00
2018-11-14T20:21:30.807Z,0.00
2018-11-14T20:22:30.806Z,0.00
2018-11-14T20:23:30.798Z,0.00
2018-11-14T20:24:30.795Z,0.00
2018-11-14T20:25:30.830Z,0.00
2018-11-14T20:26:30.775Z,0.00
2018-11-14T20:27:30.779Z,0.00
2018-11-14T20:28:30.759Z,0.00
2018-11-14T20:29:30.755Z,0.00
2018-11-14T20:30:30.839Z,0.00
2018-11-14T20:31:30.772Z,0.00
2018-11-14T20:32:30.740Z,0.00
2018-11-14T20:33:30.725Z,0.00
2018-11-14T20:34:30.756Z,0.00
2018-11-14T20:35:30.712Z,0.00
2018-11-14T20:36:30.712Z,0.00
2018-11-14T20:37:30.696Z,0.00
2018-11-14T20:38:30.689Z,0.00
2018-11-14T20:39:30.693Z,0.00
2018-11-14T20:40:30.674Z,0.00
2018-11-14T20:41:30.669Z,0.00
2018-11-14T20:42:30.660Z,0.00
2018-11-14T20:43:30.653Z,0.00
2018-11-14T20:44:30.651Z,0.00
2018-11-14T20:45:30.637Z,0.00
2018-11-14T20:46:30.631Z,0.00
2018-11-14T20:47:30.621Z,0.00
2018-11-14T20:48:30.623Z,0.00
2018-11-14T20:49:30.622Z,0.00
2018-11-14T20:50:30.600Z,0.00
2018-11-14T20:51:30.597Z,0.00
2018-11-14T20:52:30.585Z,0.00
2018-11-14T20:53:30.581Z,0.00
2018-11-14T20:54:30.573Z,0.00
2018-11-14T20:55:30.589Z,0.00
2018-11-14T20:56:30.617Z,0.00
2018-11-14T20:57:30.552Z,0.00
2018-11-14T20:58:30.545Z,0.00
2018-11-14T20:59:30.536Z,0.00
2018-11-14T21:00:30.528Z,0.00
2018-11-14T21:01:30.525Z,0.00
2018-11-14T21:02:30.515Z,0.00
2018-11-14T21:03:30.507Z,0.00
2018-11-14T21:04:30.505Z,0.00
2018-11-14T21:05:30.514Z,0.00
2018-11-14T21:06:30.486Z,0.00
2018-11-14T21:07:30.511Z,0.00
2018-11-14T21:08:30.471Z,0.00
2018-11-14T21:09:30.494Z,0.00
2018-11-14T21:10:30.472Z,0.00
2018-11-14T21:11:30.449Z,0.00
2018-11-14T21:12:30.440Z,0.00
2018-11-14T21:13:30.456Z,0.00
2018-11-14T21:14:30.423Z,0.00
2018-11-14T21:15:30.421Z,0.00
2018-11-14T21:16:30.403Z,0.00
2018-11-14T21:17:30.399Z,0.00
2018-11-14T21:18:30.410Z,0.00
2018-11-14T21:19:30.383Z,0.00
2018-11-14T21:20:30.375Z,0.00
2018-11-14T21:21:30.370Z,0.00
2018-11-14T21:22:30.367Z,0.00
2018-11-14T21:23:30.356Z,0.00
2018-11-14T21:24:30.344Z,0.00
2018-11-14T21:25:30.339Z,0.00
2018-11-14T21:26:30.327Z,0.00
2018-11-14T21:27:30.322Z,0.00
2018-11-14T21:28:30.335Z,0.00
2018-11-14T21:29:30.346Z,0.00
2018-11-14T21:30:30.298Z,0.00
2018-11-14T21:31:30.292Z,0.00
2018-11-14T21:32:30.288Z,0.00
2018-11-14T21:33:30.282Z,0.00
2018-11-14T21:34:30.290Z,0.00
2018-11-14T21:35:30.262Z,0.00
2018-11-14T21:36:30.252Z,0.00
2018-11-14T21:37:30.245Z,0.00
2018-11-14T21:38:30.317Z,0.00
2018-11-14T21:39:30.229Z,0.00
2018-11-14T21:40:30.219Z,0.00
2018-11-14T21:41:30.214Z,0.00
2018-11-14T21:42:30.222Z,0.00
2018-11-14T21:43:30.221Z,0.00
2018-11-14T21:44:30.189Z,0.00
2018-11-14T21:45:30.184Z,0.00
2018-11-14T21:46:30.182Z,0.00
2018-11-14T21:47:30.169Z,0.00
2018-11-14T21:48:30.162Z,0.00
2018-11-14T21:49:30.151Z,0.00
2018-11-14T21:50:30.147Z,0.00
2018-11-14T21:51:30.140Z,0.00
2018-11-14T21:52:30.142Z,0.00
2018-11-14T21:53:30.121Z,0.00
2018-11-14T21:54:30.121Z,0.00
2018-11-14T21:55:30.108Z,0.00
2018-11-14T21:56:30.096Z,0.00
2018-11-14T21:57:30.089Z,0.00
2018-11-14T21:58:30.080Z,0.00
2018-11-14T21:59:30.079Z,0.00
2018-11-14T22:00:30.062Z,0.00
2018-11-14T22:01:30.066Z,0.00
2018-11-14T22:02:30.054Z,0.00
2018-11-14T22:03:30.040Z,0.00
2018-11-14T22:04:30.032Z,0.00
2018-11-14T22:05:30.030Z,0.00
2018-11-14T22:06:30.018Z,0.00
2018-11-14T22:07:30.006Z,0.00
2018-11-14T22:08:30.012Z,0.00
2018-11-14T22:09:29.995Z,0.00
2018-11-14T22:10:29.987Z,0.00
2018-11-14T22:11:29.975Z,0.00
2018-11-14T22:12:29.967Z,0.00
2018-11-14T22:13:29.965Z,0.00
2018-11-14T22:14:29.955Z,0.00
2018-11-14T22:15:29.945Z,0.00
2018-11-14T22:16:29.945Z,0.00
2018-11-14T22:17:29.929Z,0.00
2018-11-14T22:18:29.924Z,0.00
2018-11-14T22:19:30.148Z,0.00
2018-11-14T22:20:29.906Z,0.00
2018-11-14T22:21:29.896Z,0.00
2018-11-14T22:22:29.887Z,0.00
2018-11-14T22:23:29.879Z,0.00
2018-11-14T22:24:29.870Z,0.00
2018-11-14T22:25:29.866Z,0.00
2018-11-14T22:26:29.858Z,0.00
2018-11-14T22:27:29.859Z,0.00
2018-11-14T22:28:29.841Z,0.00
2018-11-14T22:29:29.833Z,0.00
2018-11-14T22:30:29.827Z,0.00
2018-11-14T22:31:29.817Z,0.00
2018-11-14T22:32:29.807Z,0.00
2018-11-14T22:33:29.804Z,0.00
2018-11-14T22:34:29.801Z,0.00
2018-11-14T22:35:29.856Z,0.00
2018-11-14T22:36:29.777Z,0.00
2018-11-14T22:37:29.767Z,0.00
2018-11-14T22:38:29.764Z,0.00
2018-11-14T22:39:29.753Z,0.00
2018-11-14T22:40:29.743Z,0.00
2018-11-14T22:41:29.757Z,0.00
2018-11-14T22:42:29.731Z,0.00
2018-11-14T22:43:29.719Z,0.00
2018-11-14T22:44:29.712Z,0.00
2018-11-14T22:45:29.705Z,0.00
2018-11-14T22:46:29.697Z,0.00
2018-11-14T22:47:29.695Z,0.00
2018-11-14T22:48:29.677Z,0.00
2018-11-14T22:49:29.673Z,0.00
2018-11-14T22:50:29.663Z,0.00
2018-11-14T22:51:29.651Z,0.00
2018-11-14T22:52:29.646Z,0.00
2018-11-14T22:53:29.643Z,0.00
2018-11-14T22:54:29.630Z,0.00
2018-11-14T22:55:29.622Z,0.00
2018-11-14T22:56:29.615Z,0.00
2018-11-14T22:57:29.614Z,0.00
2018-11-14T22:58:29.598Z,0.00
2018-11-14T22:59:29.597Z,0.00
2018-11-14T23:00:29.640Z,0.00
2018-11-14T23:01:29.576Z,0.00
2018-11-14T23:02:29.569Z,0.00
2018-11-14T23:03:29.559Z,0.00
2018-11-14T23:04:29.548Z,0.00
2018-11-14T23:05:29.541Z,0.00
2018-11-14T23:06:29.530Z,0.00
2018-11-14T23:07:29.521Z,0.00
2018-11-14T23:08:29.516Z,0.00
2018-11-14T23:09:29.507Z,0.00
2018-11-14T23:10:29.501Z,0.00
2018-11-14T23:11:29.490Z,0.00
2018-11-14T23:12:29.481Z,0.00
2018-11-14T23:13:29.473Z,0.00
2018-11-14T23:14:29.465Z,0.00
2018-11-14T23:15:29.572Z,0.00
2018-11-14T23:16:29.451Z,0.00
2018-11-14T23:17:29.441Z,0.00
2018-11-14T23:18:29.432Z,0.00
2018-11-14T23:19:29.423Z,0.00
2018-11-14T23:20:29.415Z,0.00
2018-11-14T23:21:29.409Z,0.00
2018-11-14T23:22:29.406Z,0.00
2018-11-14T23:23:29.389Z,0.00
2018-11-14T23:24:29.382Z,0.00
2018-11-14T23:25:29.376Z,0.00
2018-11-14T23:26:29.363Z,0.00
2018-11-14T23:27:29.356Z,0.00
2018-11-14T23:28:29.343Z,0.00
2018-11-14T23:29:29.343Z,0.00
2018-11-14T23:30:29.334Z,0.00
2018-11-14T23:31:29.327Z,0.00
2018-11-14T23:32:29.313Z,0.00
2018-11-14T23:33:29.307Z,0.00
2018-11-14T23:34:29.295Z,0.00
2018-11-14T23:35:29.288Z,0.00
2018-11-14T23:36:29.281Z,0.00
2018-11-14T23:37:29.273Z,0.00
2018-11-14T23:38:29.268Z,0.00
2018-11-14T23:39:29.257Z,0.00
2018-11-14T23:40:29.253Z,0.00
2018-11-14T23:41:29.241Z,0.00
2018-11-14T23:42:29.229Z,0.00
2018-11-14T23:43:29.222Z,0.00
2018-11-14T23:44:29.216Z,0.00
2018-11-14T23:45:29.203Z,0.00
2018-11-14T23:46:29.196Z,0.00
2018-11-14T23:47:29.185Z,0.00
2018-11-14T23:48:29.179Z,0.00
2018-11-14T23:49:29.169Z,0.00
2018-11-14T23:50:29.164Z,0.00
2018-11-14T23:51:29.155Z,0.00
2018-11-14T23:52:29.152Z,0.00
2018-11-14T23:53:29.134Z,0.00
2018-11-14T23:54:29.138Z,0.00
2018-11-14T23:55:29.119Z,0.00
2018-11-14T23:56:29.112Z,0.00
2018-11-14T23:57:29.102Z,0.00
2018-11-14T23:58:29.094Z,0.00
2018-11-14T23:59:29.090Z,0.00
